Pleasant Hill, California
Current Conditions -  °F | °C
As of 4:53 AM on Saturday 25 Oct 2014 (Local Time) from KCCR Reporting Station
Overcast Overcast  
Wind Chill: 66°   Ceiling: 3300
Heat Index: 66°   Visibility: 10mi
Dew Point: 53°   Wind: 16mph
Humidity: 63%   Direction: 180°S
Pressure: 29.89"   Gusts: NA
Location:  37.95°N, 122.06°W
Report Text: KCCR 251153Z 18014KT 10SM OVC033 19/12 A2989 RMK AO2 SLP108 T01890117 10189 20161 56007
Loading
Personal Weather Stations






























Interactive Weather Map
Tropical Storm Tracking
New forecast layout! Learn more

10-Day Weather Forecast

Advertisements
Track Severe Weather on mobile